createdAt,value
2023-05-09T00:00:00.157Z,14.84
2023-05-09T00:03:06.376Z,14.60
2023-05-09T00:06:14.006Z,14.93
2023-05-09T00:09:20.185Z,14.93
2023-05-09T00:12:27.275Z,15.02
2023-05-09T00:15:36.299Z,14.97
2023-05-09T00:18:43.004Z,15.22
2023-05-09T00:21:49.482Z,15.35
2023-05-09T00:24:56.708Z,14.81
2023-05-09T00:28:02.808Z,15.03
2023-05-09T00:31:12.338Z,14.98
2023-05-09T00:34:18.416Z,15.28
2023-05-09T00:37:25.443Z,15.76
2023-05-09T00:40:36.603Z,14.98
2023-05-09T00:43:43.470Z,15.26
2023-05-09T00:46:52.441Z,15.39
2023-05-09T00:50:01.278Z,15.77
2023-05-09T00:53:13.146Z,15.73
2023-05-09T00:56:22.070Z,17.10
2023-05-09T00:59:34.557Z,17.70
2023-05-09T01:02:45.433Z,18.37
2023-05-09T01:06:01.858Z,18.16
2023-05-09T01:09:27.601Z,17.58
2023-05-09T01:12:49.555Z,16.98
2023-05-09T01:16:17.594Z,17.52
2023-05-09T01:20:00.182Z,16.63
2023-05-09T01:23:38.278Z,16.89
2023-05-09T01:27:19.020Z,17.21
2023-05-09T01:30:34.316Z,17.27
2023-05-09T01:33:45.478Z,16.94
2023-05-09T01:36:59.094Z,16.69
2023-05-09T01:40:15.500Z,17.26
2023-05-09T01:43:27.095Z,17.25
2023-05-09T01:46:37.968Z,17.45
2023-05-09T01:49:47.781Z,16.84
2023-05-09T01:53:01.379Z,16.79
2023-05-09T01:56:17.325Z,16.75
2023-05-09T01:59:33.274Z,16.50
2023-05-09T02:02:44.693Z,16.58
2023-05-09T02:05:53.796Z,17.27
2023-05-09T02:09:01.954Z,17.26
2023-05-09T02:12:08.732Z,17.25
2023-05-09T02:15:16.735Z,18.01
2023-05-09T02:18:25.351Z,17.94
2023-05-09T02:21:32.258Z,18.41
2023-05-09T02:24:39.145Z,19.08
2023-05-09T02:27:49.623Z,18.43
2023-05-09T02:31:05.024Z,18.12
2023-05-09T02:34:16.470Z,18.48
2023-05-09T02:37:24.032Z,18.98
2023-05-09T02:40:33.516Z,19.46
2023-05-09T02:43:39.459Z,19.50
2023-05-09T02:46:46.648Z,19.68
2023-05-09T02:50:01.377Z,19.27
2023-05-09T02:53:15.963Z,19.59
2023-05-09T02:56:28.662Z,19.77
2023-05-09T02:59:35.539Z,20.60
2023-05-09T03:02:42.937Z,21.18
2023-05-09T03:05:58.148Z,21.50
2023-05-09T03:09:04.160Z,21.99
2023-05-09T03:12:12.122Z,21.83
2023-05-09T03:15:24.046Z,21.60
2023-05-09T03:18:31.331Z,21.88
2023-05-09T03:21:40.030Z,21.84
2023-05-09T03:25:03.986Z,22.35
2023-05-09T03:28:09.992Z,23.58
2023-05-09T03:31:19.520Z,25.52
2023-05-09T03:34:25.439Z,24.60
2023-05-09T03:37:35.037Z,24.43
2023-05-09T03:40:41.745Z,24.50
2023-05-09T03:43:50.774Z,24.56
2023-05-09T03:46:56.632Z,25.75
2023-05-09T03:50:06.064Z,24.69
2023-05-09T03:53:15.826Z,25.42
2023-05-09T03:56:26.173Z,25.05
2023-05-09T03:59:33.120Z,24.49
2023-05-09T04:02:41.104Z,23.84
2023-05-09T04:05:50.779Z,22.57
2023-05-09T04:09:11.982Z,21.47
2023-05-09T04:12:20.630Z,22.29
2023-05-09T04:15:28.308Z,21.58
2023-05-09T04:18:36.868Z,20.91
2023-05-09T04:21:44.972Z,19.63
2023-05-09T04:24:53.548Z,18.48
2023-05-09T04:28:00.933Z,18.75
2023-05-09T04:31:07.731Z,18.02
2023-05-09T04:34:15.930Z,17.93
2023-05-09T04:37:22.319Z,18.11
2023-05-09T04:40:38.770Z,18.31
2023-05-09T04:43:44.939Z,17.23
2023-05-09T04:47:01.559Z,16.59
2023-05-09T04:50:25.489Z,16.33
2023-05-09T04:53:32.306Z,16.23
2023-05-09T04:56:42.473Z,16.11
2023-05-09T04:59:50.037Z,16.32
2023-05-09T05:02:56.224Z,15.51
2023-05-09T05:06:06.625Z,15.54
2023-05-09T05:09:14.190Z,16.09
2023-05-09T05:12:23.724Z,15.58
2023-05-09T05:15:29.865Z,15.16
2023-05-09T05:18:37.461Z,15.62
2023-05-09T05:21:44.819Z,15.49
2023-05-09T05:24:52.351Z,15.59
2023-05-09T05:28:01.620Z,16.04
2023-05-09T05:31:08.848Z,15.89
2023-05-09T05:34:16.670Z,16.10
2023-05-09T05:37:24.455Z,15.59
2023-05-09T05:40:30.437Z,15.37
2023-05-09T05:43:43.237Z,15.74
2023-05-09T05:46:49.440Z,15.47
2023-05-09T05:49:57.167Z,15.03
2023-05-09T05:53:03.696Z,14.91
2023-05-09T05:56:11.173Z,14.45
2023-05-09T05:59:20.003Z,14.71
2023-05-09T06:02:27.155Z,14.60
2023-05-09T06:05:33.961Z,13.88
2023-05-09T06:08:41.357Z,15.50
2023-05-09T06:11:47.943Z,24.11
2023-05-09T06:14:57.322Z,27.79
2023-05-09T06:18:03.712Z,244.67
2023-05-09T06:21:11.026Z,48.41
2023-05-09T06:24:31.633Z,26.81
2023-05-09T06:27:42.042Z,26.50
2023-05-09T06:30:50.800Z,28.82
2023-05-09T06:33:57.609Z,27.13
2023-05-09T06:37:03.554Z,23.14
2023-05-09T06:40:12.582Z,23.67
2023-05-09T06:43:18.559Z,25.44
2023-05-09T06:46:28.140Z,25.50
2023-05-09T06:49:36.293Z,26.43
2023-05-09T06:52:43.721Z,29.31
2023-05-09T06:55:49.925Z,29.08
2023-05-09T06:58:56.848Z,26.69
2023-05-09T07:02:06.829Z,23.98
2023-05-09T07:05:14.059Z,25.23
2023-05-09T07:08:20.400Z,22.95
2023-05-09T07:11:27.403Z,24.45
2023-05-09T07:14:37.296Z,22.03
2023-05-09T07:17:47.069Z,43.09
2023-05-09T07:20:53.094Z,43.84
2023-05-09T07:23:59.868Z,44.55
2023-05-09T07:27:06.822Z,25.47
2023-05-09T07:30:14.896Z,22.44
2023-05-09T07:33:23.854Z,23.60
2023-05-09T07:36:30.822Z,23.54
2023-05-09T07:39:41.300Z,22.46
2023-05-09T07:42:54.421Z,20.26
2023-05-09T07:46:00.436Z,16.76
2023-05-09T07:49:09.947Z,19.22
2023-05-09T07:52:17.610Z,16.73
2023-05-09T07:55:26.539Z,19.26
2023-05-09T07:58:32.499Z,16.09
2023-05-09T08:01:39.432Z,18.84
2023-05-09T08:04:49.287Z,15.01
2023-05-09T08:07:56.097Z,18.35
2023-05-09T08:11:02.243Z,15.40
2023-05-09T08:14:09.061Z,17.02
2023-05-09T08:17:15.048Z,14.25
2023-05-09T08:20:25.996Z,17.50
2023-05-09T08:23:32.812Z,16.46
2023-05-09T08:26:39.599Z,18.06
2023-05-09T08:29:46.408Z,19.01
2023-05-09T08:32:59.507Z,17.98
2023-05-09T08:36:09.493Z,15.92
2023-05-09T08:39:16.301Z,17.98
2023-05-09T08:42:26.786Z,19.55
2023-05-09T08:45:37.170Z,19.71
2023-05-09T08:48:46.471Z,20.20
2023-05-09T08:51:56.353Z,17.76
2023-05-09T08:55:04.059Z,17.90
2023-05-09T08:58:12.774Z,18.24
2023-05-09T09:01:22.092Z,16.99
2023-05-09T09:04:29.065Z,16.78
2023-05-09T09:07:39.775Z,16.70
2023-05-09T09:10:50.254Z,16.84
2023-05-09T09:13:59.113Z,16.42
2023-05-09T09:17:09.439Z,16.22
2023-05-09T09:20:27.682Z,18.97
2023-05-09T09:23:40.982Z,18.43
2023-05-09T09:26:52.000Z,18.98
2023-05-09T09:30:14.629Z,18.65
2023-05-09T09:33:24.345Z,15.65
2023-05-09T09:36:32.737Z,16.62
2023-05-09T09:39:41.285Z,16.73
2023-05-09T09:42:50.087Z,17.74
2023-05-09T09:45:58.286Z,15.49
2023-05-09T09:49:05.208Z,17.86
2023-05-09T09:52:11.115Z,18.86
2023-05-09T09:55:27.891Z,17.72
2023-05-09T09:58:36.066Z,16.96
2023-05-09T10:02:06.106Z,18.15
2023-05-09T10:05:15.838Z,17.19
2023-05-09T10:08:22.844Z,20.53
2023-05-09T10:11:31.721Z,18.10
2023-05-09T10:14:41.553Z,24.14
2023-05-09T10:17:47.888Z,19.96
2023-05-09T10:20:56.707Z,20.42
2023-05-09T10:24:06.400Z,20.15
2023-05-09T10:27:18.825Z,20.51
2023-05-09T10:30:34.219Z,20.14
2023-05-09T10:33:49.873Z,20.36
2023-05-09T10:36:57.789Z,17.97
2023-05-09T10:40:09.595Z,20.65
2023-05-09T10:43:22.088Z,18.79
2023-05-09T10:46:31.613Z,21.01
2023-05-09T10:49:38.331Z,17.83
2023-05-09T10:53:14.482Z,20.75
2023-05-09T10:56:29.496Z,17.56
2023-05-09T10:59:44.022Z,20.33
2023-05-09T11:03:10.906Z,21.63
2023-05-09T11:06:51.388Z,19.74
2023-05-09T11:10:12.915Z,19.76
2023-05-09T11:13:23.865Z,19.68
2023-05-09T11:16:32.433Z,19.23
2023-05-09T11:19:57.031Z,21.18
2023-05-09T11:23:09.012Z,17.66
2023-05-09T11:26:18.296Z,21.21
2023-05-09T11:29:29.776Z,17.11
2023-05-09T11:32:49.391Z,20.43
2023-05-09T11:36:25.854Z,19.91
2023-05-09T11:39:33.037Z,21.24
2023-05-09T11:42:39.881Z,25.36
2023-05-09T11:45:50.046Z,24.09
2023-05-09T11:48:58.762Z,24.10
2023-05-09T11:52:05.469Z,23.58
2023-05-09T11:55:14.717Z,23.64
2023-05-09T11:58:21.999Z,23.90
2023-05-09T12:01:29.584Z,21.24
2023-05-09T12:04:39.896Z,20.59
2023-05-09T12:07:46.620Z,18.05
2023-05-09T12:10:53.846Z,21.02
2023-05-09T12:13:59.757Z,19.38
2023-05-09T12:17:06.680Z,19.96
2023-05-09T12:20:16.424Z,18.00
2023-05-09T12:23:23.692Z,17.39
2023-05-09T12:26:30.233Z,12.53
2023-05-09T12:29:38.761Z,15.97
2023-05-09T12:32:47.145Z,14.42
2023-05-09T12:36:11.598Z,12.59
2023-05-09T12:39:22.723Z,13.57
2023-05-09T12:42:31.738Z,14.93
2023-05-09T12:45:38.695Z,10.13
2023-05-09T12:48:50.626Z,11.89
2023-05-09T12:52:05.764Z,14.24
2023-05-09T12:55:17.195Z,14.93
2023-05-09T12:58:23.259Z,19.17
2023-05-09T13:01:37.959Z,19.02
2023-05-09T13:04:48.853Z,15.42
2023-05-09T13:08:00.999Z,16.85
2023-05-09T13:11:18.680Z,15.15
2023-05-09T13:14:30.372Z,16.55
2023-05-09T13:17:36.439Z,16.80
2023-05-09T13:20:43.864Z,17.48
2023-05-09T13:23:53.037Z,17.67
2023-05-09T13:26:59.833Z,20.08
2023-05-09T13:30:07.936Z,17.87
2023-05-09T13:33:25.409Z,20.99
2023-05-09T13:36:32.911Z,17.09
2023-05-09T13:39:42.357Z,20.21
2023-05-09T13:42:49.227Z,18.65
2023-05-09T13:45:56.102Z,19.09
2023-05-09T13:49:05.010Z,19.49
2023-05-09T13:52:12.406Z,16.44
2023-05-09T13:55:23.656Z,15.59
2023-05-09T13:58:30.472Z,18.46
2023-05-09T14:01:36.614Z,18.01
2023-05-09T14:04:44.317Z,20.97
2023-05-09T14:07:52.781Z,16.63
2023-05-09T14:11:04.262Z,15.92
2023-05-09T14:14:10.266Z,17.29
2023-05-09T14:17:17.268Z,17.43
2023-05-09T14:20:24.171Z,16.09
2023-05-09T14:23:32.036Z,16.40
2023-05-09T14:26:42.013Z,19.61
2023-05-09T14:29:49.753Z,23.97
2023-05-09T14:32:55.974Z,20.66
2023-05-09T14:36:05.104Z,19.62
2023-05-09T14:39:11.225Z,19.92
2023-05-09T14:42:21.082Z,17.93
2023-05-09T14:45:27.137Z,17.92
2023-05-09T14:48:34.137Z,18.28
2023-05-09T14:51:40.203Z,19.62
2023-05-09T14:54:46.968Z,18.39
2023-05-09T14:57:55.619Z,13.32
2023-05-09T15:01:03.024Z,13.59
2023-05-09T15:04:09.774Z,15.68
2023-05-09T15:07:16.508Z,18.65
2023-05-09T15:10:22.574Z,15.16
2023-05-09T15:13:32.142Z,17.76
2023-05-09T15:16:40.032Z,17.62
2023-05-09T15:19:47.263Z,19.53
2023-05-09T15:22:56.494Z,15.95
2023-05-09T15:26:03.249Z,17.92
2023-05-09T15:29:13.447Z,18.70
2023-05-09T15:32:20.724Z,19.33
2023-05-09T15:35:27.005Z,16.75
2023-05-09T15:38:33.688Z,19.32
2023-05-09T15:41:42.983Z,18.77
2023-05-09T15:44:53.172Z,19.15
2023-05-09T15:47:59.167Z,20.49
2023-05-09T15:51:06.048Z,20.53
2023-05-09T15:54:11.997Z,21.29
2023-05-09T15:57:20.123Z,21.80
2023-05-09T16:00:38.583Z,16.00
2023-05-09T16:03:45.515Z,21.44
2023-05-09T16:06:52.513Z,22.40
2023-05-09T16:10:00.253Z,22.60
2023-05-09T16:13:06.319Z,19.92
2023-05-09T16:16:16.061Z,22.10
2023-05-09T16:19:30.883Z,19.23
2023-05-09T16:22:37.795Z,20.20
2023-05-09T16:25:45.208Z,20.64
2023-05-09T16:28:52.359Z,21.95
2023-05-09T16:32:01.008Z,18.04
2023-05-09T16:35:22.753Z,18.85
2023-05-09T16:38:29.194Z,14.85
2023-05-09T16:41:36.000Z,18.55
2023-05-09T16:44:42.170Z,16.89
2023-05-09T16:47:51.726Z,19.06
2023-05-09T16:50:57.756Z,20.47
2023-05-09T16:54:09.990Z,20.26
2023-05-09T16:57:19.798Z,22.84
2023-05-09T17:00:39.961Z,20.18
2023-05-09T17:03:48.927Z,20.05
2023-05-09T17:06:55.996Z,24.86
2023-05-09T17:10:02.258Z,20.74
2023-05-09T17:13:09.701Z,21.65
2023-05-09T17:16:16.406Z,20.64
2023-05-09T17:19:28.756Z,21.13
2023-05-09T17:22:41.785Z,20.66
2023-05-09T17:25:52.242Z,20.36
2023-05-09T17:28:58.257Z,23.46
2023-05-09T17:32:07.913Z,22.63
2023-05-09T17:35:19.639Z,22.22
2023-05-09T17:38:26.540Z,20.46
2023-05-09T17:41:38.932Z,17.62
2023-05-09T17:44:47.864Z,16.84
2023-05-09T17:47:53.903Z,16.20
2023-05-09T17:51:09.934Z,18.69
2023-05-09T17:54:22.187Z,22.58
2023-05-09T17:57:29.161Z,24.80
2023-05-09T18:00:41.949Z,27.27
2023-05-09T18:03:51.196Z,23.57
2023-05-09T18:07:00.118Z,21.92
2023-05-09T18:10:15.517Z,23.54
2023-05-09T18:13:21.812Z,24.50
2023-05-09T18:16:28.711Z,25.54
2023-05-09T18:19:35.760Z,29.26
2023-05-09T18:22:45.067Z,30.94
2023-05-09T18:25:51.486Z,29.78
2023-05-09T18:28:58.422Z,26.64
2023-05-09T18:32:04.993Z,24.11
2023-05-09T18:35:12.927Z,30.74
2023-05-09T18:38:21.474Z,24.88
2023-05-09T18:41:34.259Z,23.79
2023-05-09T18:44:40.294Z,22.89
2023-05-09T18:47:47.178Z,27.34
2023-05-09T18:50:54.306Z,23.73
2023-05-09T18:54:03.839Z,25.33
2023-05-09T18:57:10.252Z,24.68
2023-05-09T19:00:19.101Z,30.83
2023-05-09T19:03:25.833Z,30.49
2023-05-09T19:06:34.946Z,25.04
2023-05-09T19:09:45.035Z,21.90
2023-05-09T19:12:52.312Z,25.74
2023-05-09T19:15:59.606Z,24.23
2023-05-09T19:19:06.440Z,22.84
2023-05-09T19:22:12.455Z,22.45
2023-05-09T19:25:22.474Z,24.54
2023-05-09T19:28:28.643Z,23.55
2023-05-09T19:31:35.428Z,25.91
2023-05-09T19:34:41.471Z,24.40
2023-05-09T19:37:50.447Z,25.97
2023-05-09T19:40:59.503Z,26.79
2023-05-09T19:44:07.552Z,24.22
2023-05-09T19:47:14.029Z,21.18
2023-05-09T19:50:21.463Z,20.07
2023-05-09T19:53:36.130Z,18.95
2023-05-09T19:56:45.577Z,21.67
2023-05-09T19:59:52.343Z,20.92
2023-05-09T20:03:02.852Z,21.57
2023-05-09T20:06:09.366Z,21.62
2023-05-09T20:09:21.116Z,24.18
2023-05-09T20:12:30.364Z,23.28
2023-05-09T20:15:37.610Z,24.40
2023-05-09T20:19:01.375Z,18.59
2023-05-09T20:22:09.242Z,24.01
2023-05-09T20:25:15.660Z,20.06
2023-05-09T20:28:25.224Z,22.13
2023-05-09T20:31:31.567Z,20.96
2023-05-09T20:34:38.454Z,42.49
2023-05-09T20:37:44.674Z,48.30
2023-05-09T20:40:51.450Z,36.59
2023-05-09T20:44:04.534Z,28.78
2023-05-09T20:47:11.812Z,23.25
2023-05-09T20:50:18.141Z,23.85
2023-05-09T20:53:26.805Z,23.07
2023-05-09T20:56:34.001Z,22.62
2023-05-09T20:59:44.393Z,25.09
2023-05-09T21:02:50.373Z,24.33
2023-05-09T21:05:57.490Z,25.64
2023-05-09T21:09:03.728Z,23.12
2023-05-09T21:12:11.393Z,22.26
2023-05-09T21:15:20.453Z,25.26
2023-05-09T21:18:27.783Z,24.63
2023-05-09T21:21:34.728Z,22.12
2023-05-09T21:24:41.400Z,22.98
2023-05-09T21:27:47.869Z,24.14
2023-05-09T21:31:00.224Z,27.01
2023-05-09T21:34:10.321Z,26.60
2023-05-09T21:37:17.208Z,25.93
2023-05-09T21:40:25.963Z,23.36
2023-05-09T21:43:32.784Z,24.73
2023-05-09T21:46:46.523Z,24.85
2023-05-09T21:49:53.469Z,24.44
2023-05-09T21:53:00.747Z,25.61
2023-05-09T21:56:08.624Z,24.90
2023-05-09T21:59:14.461Z,23.26
2023-05-09T22:02:24.026Z,25.13
2023-05-09T22:05:30.154Z,24.56
2023-05-09T22:08:36.900Z,22.94
2023-05-09T22:11:42.907Z,21.44
2023-05-09T22:14:56.329Z,22.38
2023-05-09T22:18:05.718Z,23.49
2023-05-09T22:21:12.989Z,24.04
2023-05-09T22:24:18.812Z,21.82
2023-05-09T22:27:25.654Z,24.24
2023-05-09T22:30:38.068Z,22.87
2023-05-09T22:33:47.469Z,22.34
2023-05-09T22:36:56.366Z,22.80
2023-05-09T22:40:03.732Z,24.18
2023-05-09T22:43:10.904Z,23.74
2023-05-09T22:46:17.636Z,24.18
2023-05-09T22:49:26.813Z,20.79
2023-05-09T22:52:33.568Z,23.56
2023-05-09T22:55:39.777Z,20.56
2023-05-09T22:58:46.911Z,22.32
2023-05-09T23:01:53.828Z,23.67
2023-05-09T23:05:03.553Z,27.88
2023-05-09T23:08:09.603Z,26.92
2023-05-09T23:11:16.301Z,26.91
2023-05-09T23:14:22.356Z,27.83
2023-05-09T23:17:32.081Z,24.05
2023-05-09T23:20:40.669Z,23.20
2023-05-09T23:23:47.407Z,26.35
2023-05-09T23:26:53.372Z,25.63
2023-05-09T23:30:00.223Z,25.64
2023-05-09T23:33:06.339Z,23.08
2023-05-09T23:36:15.943Z,23.29
2023-05-09T23:39:21.980Z,23.55
2023-05-09T23:42:29.161Z,23.16
2023-05-09T23:45:40.863Z,24.70
2023-05-09T23:48:47.677Z,283.12
2023-05-09T23:51:57.292Z,856.49
2023-05-09T23:55:04.099Z,1458.70
2023-05-09T23:58:10.115Z,409.06
